Bookmark and Share
Track history (hours):
 

Anna Noli

Last reported at 2014-Apr-23 14:30 UTC. Time now 2014-Apr-23 15:03 UTC.
Position N 44°18' E 008°29'.

Length 32 m.

Type: Tug. MMSI: 247046500.

NotesDate/timePositionNaut miles runAvg speedWind from/ knotsBaromVisibWave heightAir tempDewpointWater temp
2014-Apr-23 14:30N 44°18' E 008°29'0 0.0
2014-Apr-23 13:33N 44°18' E 008°29'0 0.0
2014-Apr-23 12:30N 44°18' E 008°29'0 0.0
2014-Apr-23 11:33N 44°18' E 008°29'0 0.0
2014-Apr-23 10:33N 44°18' E 008°29'0 0.0
2014-Apr-23 09:30N 44°18' E 008°29'0 0.0
2014-Apr-23 08:30N 44°18' E 008°29'0 0.0
2014-Apr-23 07:24N 44°18' E 008°29'0 0.0
2014-Apr-23 06:30N 44°18' E 008°29'0 0.0
2014-Apr-23 05:30N 44°18' E 008°29'0 0.0
2014-Apr-23 04:30N 44°18' E 008°29'0 0.0
2014-Apr-23 03:30N 44°18' E 008°29'0 0.0
2014-Apr-23 02:30N 44°18' E 008°29'0 0.0
2014-Apr-23 01:33N 44°18' E 008°29'0 0.0
2014-Apr-23 00:33N 44°18' E 008°29'0 0.0
2014-Apr-22 23:30N 44°18' E 008°29'0 0.0
2014-Apr-22 22:33N 44°18' E 008°29'0 0.0
2014-Apr-22 21:33N 44°18' E 008°29'0 0.0
2014-Apr-22 20:24N 44°18' E 008°29'0 0.0
2014-Apr-22 19:30N 44°18' E 008°29'0 0.0
2014-Apr-22 18:30N 44°18' E 008°29'0 0.0
2014-Apr-22 17:30N 44°18' E 008°29'0 0.4
2014-Apr-22 16:33N 44°19' E 008°30'0 0.3
2014-Apr-22 15:32N 44°18' E 008°29'0 0.0
2014-Apr-22 14:29N 44°18' E 008°29'0 0.0
2014-Apr-22 13:33N 44°18' E 008°29'1 1.0
2014-Apr-22 12:33N 44°19' E 008°31'1 0.9
2014-Apr-22 11:29N 44°18' E 008°29'0 0.0
2014-Apr-22 10:29N 44°18' E 008°29'0 0.0
2014-Apr-22 09:29N 44°18' E 008°29'0 0.0
2014-Apr-22 08:29N 44°18' E 008°29'0 0.0
2014-Apr-22 07:32N 44°18' E 008°29'0 0.0
2014-Apr-22 06:29N 44°18' E 008°29'0 0.0
2014-Apr-22 05:29N 44°18' E 008°29'0 0.0
2014-Apr-22 04:29N 44°18' E 008°29'1 0.6
2014-Apr-22 03:33N 44°19' E 008°30'1 0.5
2014-Apr-22 02:33N 44°18' E 008°29'0 0.0
2014-Apr-22 01:33N 44°18' E 008°29'0 0.0
2014-Apr-22 00:33N 44°18' E 008°29'0 0.0
2014-Apr-21 23:33N 44°18' E 008°29'0 0.0
2014-Apr-21 22:33N 44°18' E 008°29'0 0.0
2014-Apr-21 21:27N 44°18' E 008°29'0 0.0
2014-Apr-21 20:33N 44°18' E 008°29'0 0.0
2014-Apr-21 19:33N 44°18' E 008°29'0 0.0
2014-Apr-21 18:33N 44°18' E 008°29'0 0.0
2014-Apr-21 17:33N 44°18' E 008°29'0 0.0
2014-Apr-21 16:33N 44°18' E 008°29'0 0.5
2014-Apr-21 15:33N 44°18' E 008°29'2 1.6
2014-Apr-21 14:31N 44°17' E 008°28'0 0.3
2014-Apr-21 13:31N 44°17' E 008°28'0 0.4
2014-Apr-21 12:33N 44°16' E 008°28'2 2.2
2014-Apr-21 11:32N 44°18' E 008°29'0 0.0
2014-Apr-21 10:32N 44°18' E 008°29'0 0.0
2014-Apr-21 09:32N 44°18' E 008°29'0 0.0
2014-Apr-21 08:32N 44°18' E 008°29'0 0.0
2014-Apr-21 07:32N 44°18' E 008°29'0 0.0
2014-Apr-21 06:32N 44°18' E 008°29'0 0.0
2014-Apr-21 05:32N 44°18' E 008°29'0 0.0
2014-Apr-21 04:32N 44°18' E 008°29'0 0.0
2014-Apr-21 03:32N 44°18' E 008°29'0 0.0
2014-Apr-21 02:32N 44°18' E 008°29'0 0.0
2014-Apr-21 01:32N 44°18' E 008°29'0 0.0
2014-Apr-21 00:32N 44°18' E 008°29'0 0.0
2014-Apr-20 23:32N 44°18' E 008°29'0 0.0
2014-Apr-20 22:32N 44°18' E 008°29'0 0.0
2014-Apr-20 21:32N 44°18' E 008°29'0 0.0
2014-Apr-20 20:32N 44°18' E 008°29'0 0.0
2014-Apr-20 19:32N 44°18' E 008°29'0 0.0
2014-Apr-20 18:32N 44°18' E 008°29'0 0.0
2014-Apr-20 17:32N 44°18' E 008°29'0 0.0
2014-Apr-20 16:32N 44°18' E 008°29'0 0.0
2014-Apr-20 15:32N 44°18' E 008°29'0 0.0
2014-Apr-20 14:32N 44°18' E 008°29'0 0.0
2014-Apr-20 13:32N 44°18' E 008°29'0 0.0
2014-Apr-20 12:32N 44°18' E 008°29'0 0.0
2014-Apr-20 11:32N 44°18' E 008°29'2 2.0
2014-Apr-20 10:32N 44°17' E 008°28'0 0.3
2014-Apr-20 09:26N 44°16' E 008°28'0 0.5
2014-Apr-20 08:33N 44°16' E 008°28'3 2.5
2014-Apr-20 07:33N 44°18' E 008°29'0 0.0
2014-Apr-20 06:30N 44°18' E 008°29'0 0.0
2014-Apr-20 05:30N 44°18' E 008°29'0 0.0
2014-Apr-20 04:30N 44°18' E 008°29'0 0.0
2014-Apr-20 03:33N 44°18' E 008°29'0 0.0
2014-Apr-20 02:30N 44°18' E 008°29'0 0.0
2014-Apr-20 01:30N 44°18' E 008°29'0 0.0
2014-Apr-20 00:33N 44°18' E 008°29'0 0.0
2014-Apr-19 23:30N 44°18' E 008°29'0 0.0
2014-Apr-19 22:30N 44°18' E 008°29'1 0.8
2014-Apr-19 21:33N 44°19' E 008°30'1 0.7
2014-Apr-19 20:28N 44°18' E 008°29'0 0.0
2014-Apr-19 19:31N 44°18' E 008°29'0 0.0
2014-Apr-19 18:28N 44°18' E 008°29'0 0.0
2014-Apr-19 17:28N 44°18' E 008°29'0 0.0
2014-Apr-19 16:33N 44°18' E 008°29'0 0.0
2014-Apr-19 15:33N 44°18' E 008°29'0 0.2
2014-Apr-19 14:33N 44°19' E 008°29'0 0.2
2014-Apr-19 13:33N 44°19' E 008°30'0 0.3
2014-Apr-19 12:30N 44°18' E 008°29'0 0.0
2014-Apr-19 11:33N 44°18' E 008°29'0 0.0
2014-Apr-19 10:30N 44°18' E 008°29'0 0.0
2014-Apr-19 09:30N 44°18' E 008°29'0 0.0
2014-Apr-19 08:30N 44°18' E 008°29'0 0.0
2014-Apr-19 07:30N 44°18' E 008°29'0 0.0
2014-Apr-19 06:30N 44°18' E 008°29'0 0.4
2014-Apr-19 05:29N 44°19' E 008°30'0 0.4
2014-Apr-19 04:33N 44°18' E 008°29'0 0.0
2014-Apr-19 03:33N 44°18' E 008°29'0 0.0
2014-Apr-19 02:33N 44°18' E 008°29'0 0.0
2014-Apr-19 01:33N 44°18' E 008°29'0 0.0
2014-Apr-19 00:33N 44°18' E 008°29'0 0.0
2014-Apr-18 23:33N 44°18' E 008°29'0 0.0
2014-Apr-18 22:33N 44°18' E 008°29'0 0.0
2014-Apr-18 21:33N 44°18' E 008°29'0 0.0
2014-Apr-18 20:33N 44°18' E 008°29'0 0.0
2014-Apr-18 19:33N 44°18' E 008°29'0 0.0
2014-Apr-18 18:33N 44°18' E 008°29'0 0.0
2014-Apr-18 17:33N 44°18' E 008°29'0 0.4
2014-Apr-18 16:29N 44°19' E 008°30'0 0.4
2014-Apr-18 15:31N 44°18' E 008°29'0 0.0
2014-Apr-18 14:31N 44°18' E 008°29'0 0.0
2014-Apr-18 13:31N 44°18' E 008°29'3 3.3
2014-Apr-18 12:32N 44°16' E 008°27'0 0.0
2014-Apr-18 11:32N 44°16' E 008°27'0 0.0
2014-Apr-18 10:32N 44°16' E 008°27'0 0.0
2014-Apr-18 09:32N 44°16' E 008°27'0 0.0
2014-Apr-18 08:32N 44°16' E 008°27'0 0.0
2014-Apr-18 07:32N 44°16' E 008°27'1 1.2
2014-Apr-18 06:32N 44°17' E 008°28'0 0.3
2014-Apr-18 05:32N 44°17' E 008°28'3 3.0
2014-Apr-18 04:33N 44°19' E 008°30'1 0.6
2014-Apr-18 03:31N 44°18' E 008°29'0 0.0
2014-Apr-18 02:28N 44°18' E 008°29'0 0.0
2014-Apr-18 01:28N 44°18' E 008°29'0 0.0
2014-Apr-18 00:28N 44°18' E 008°29'0 0.0
2014-Apr-17 23:28N 44°18' E 008°29'0 0.0
2014-Apr-17 22:28N 44°18' E 008°29'0 0.0
2014-Apr-17 21:28N 44°18' E 008°29'0 0.0
2014-Apr-17 20:28N 44°18' E 008°29'0 0.0
2014-Apr-17 19:31N 44°18' E 008°29'0 0.0
2014-Apr-17 18:28N 44°18' E 008°29'0 0.0
2014-Apr-17 17:28N 44°18' E 008°29'0 0.0
2014-Apr-17 16:28N 44°18' E 008°29'0 0.0
2014-Apr-17 15:28N 44°18' E 008°29'0 0.0
2014-Apr-17 14:28N 44°18' E 008°29'0 0.0
2014-Apr-17 13:13N 44°18' E 008°29'1 0.2
2014-Apr-17 08:23N 44°19' E 008°30'1 0.2
2014-Apr-17 05:19N 44°18' E 008°29'0 0.0
2014-Apr-17 04:19N 44°18' E 008°29'0 0.0
2014-Apr-17 03:25N 44°18' E 008°29'0 0.0
2014-Apr-17 02:31N 44°18' E 008°29'0 0.0
2014-Apr-17 01:31N 44°18' E 008°29'0 0.0
2014-Apr-17 00:31N 44°18' E 008°29'0 0.0
2014-Apr-16 20:07N 44°18' E 008°29'0 0.0
2014-Apr-16 19:19N 44°18' E 008°29'0 0.0
2014-Apr-16 18:13N 44°18' E 008°29'0 0.0
2014-Apr-16 16:16N 44°18' E 008°29'0 0.0
2014-Apr-16 15:25N 44°18' E 008°29'0 0.0
2014-Apr-16 14:28N 44°18' E 008°29'0 0.0
2014-Apr-16 11:28N 44°18' E 008°29'0 0.2
2014-Apr-16 08:32N 44°19' E 008°30'0 0.5
2014-Apr-16 07:32N 44°18' E 008°29'0 0.0
2014-Apr-16 05:17N 44°18' E 008°29'0 0.3
2014-Apr-16 04:20N 44°19' E 008°30'0 0.4
2014-Apr-16 03:33N 44°18' E 008°29'0 0.0
2014-Apr-16 02:33N 44°18' E 008°29'0 0.0
2014-Apr-16 01:24N 44°18' E 008°29'0 0.0
2014-Apr-16 00:27N 44°18' E 008°29'0 0.0
2014-Apr-15 23:33N 44°18' E 008°29'0 0.0
2014-Apr-15 19:27N 44°18' E 008°29'0 0.0
2014-Apr-15 15:33N 44°18' E 008°29'0 0.0
2014-Apr-15 10:31N 44°18' E 008°29'0 0.0
2014-Apr-15 05:33N 44°18' E 008°29'0 0.0
2014-Apr-15 01:32N 44°18' E 008°29'0 0.0
2014-Apr-15 00:32N 44°18' E 008°29'0 0.0
2014-Apr-14 22:32N 44°18' E 008°29'0 0.0
2014-Apr-14 18:32N 44°18' E 008°29'0 0.0
2014-Apr-14 08:33N 44°19' E 008°30'0 0.0
2014-Apr-13 15:33N 44°18' E 008°29'  

Dump ship's entire track history

sailing weather and tide predictions

Anna Noli — IZEL — position and weather